2CO4 weather

Presbyterian/St Luke's Medical Center Heliport
Denver, Colorado, United States

Public forecast

Using degrees Fahrenheit for public forecast. Weather courtesy of forecast.io.

METAR (pilot weather report)

Closest report is Buckley Air Force Base, 10.4 nm (19.3 km) ESE. Retrieved 2019/04/20 15:58 UTC (31 minutes ago):

KBKF 201558Z 20004KT 10SM FEW110 BKN220 21/M06 A2996 RMK AO2A SLP080 T02091059

TAF (pilot weather forecast)

Forecast is more than 6 hours old.

Closest forecast is Buckley Air Force Base, 10.4 nm (19.3 km) ESE. Retrieved 2019/04/20 09:03 UTC (7 hours ago):

TAF TAF KBKF 200900Z 2009/2115 20009KT 9999 FEW100 QNH2979INS BECMG 2019/2020 30012KT 9999 SCT200 QNH2975INS TEMPO 2022/2102 VRB20G30KT VCTS SCT100CB BKN200 BECMG 2104/2105 19009KT 9999 FEW100 FEW130 QNH2982INS BECMG 2113/2114 25012KT 9999 FEW150 QNH2979INS TX26/2021Z TN03/2012Z